Flight Track Log - Related Links

Times and Time Zones

All times are in EDT time to prevent confusion due to time zone crossing. See the N960DL flight status page for this flight to view local times or setup timezone preferences in your user account.

Time Position Orientation Groundspeed Altitude Reporting Facility
EDT Latitude Longitude Course Direction KTS MPH feet Rate Location/Type
Tue 01:45:46 PM 42.9167 -87.9000 72° East 172 198 1,700  Level KMKE
Tue 01:46:10 PM 42.9000 -87.8833 144° Southeast 177 204 2,400 1,520 Climbing KMKE
Tue 01:47:01 PM 42.8981 -87.8258 93° East 244 281 3,600 1,381 Climbing Chicago Center
Tue 01:48:03 PM 42.9250 -87.7239 70° East 284 327 5,000 1,839 Climbing Chicago Center
Tue 01:49:00 PM 42.8615 -87.2993 90° East  Level Estimated
Tue 01:49:05 PM 42.9514 -87.6222 70° East 286 329 7,400  Level Chicago Center
Tue 01:50:00 PM 42.9040 -87.1586 68° East  Level FlightAware Approximate
Tue 01:50:07 PM 42.9572 -87.5042 86° East 313 360 10,200  Level Chicago Center
Tue 01:51:00 PM 42.8797 -87.0100 72° East  Level Estimated
Tue 01:51:09 PM 42.9544 -87.3594 91° East 354 407 11,900  Level Chicago Center
Tue 01:52:11 PM 42.9583 -87.2019 88° East 412 474 14,400 2,516 Climbing Chicago Center
Tue 01:53:13 PM 42.9878 -87.0483 75° East 416 479 17,100 2,323 Climbing Chicago Center
Tue 01:54:15 PM 43.0178 -86.8914 75° East 426 490 19,200 2,226 Climbing Chicago Center
Tue 01:55:17 PM 43.0508 -86.6925 77° East 445 512 21,700 1,839 Climbing Chicago Center
Tue 01:56:19 PM 43.0728 -86.5175 80° East 463 533 23,000 629 Climbing Chicago Center
Tue 01:57:21 PM 43.0975 -86.3383 79° East 476 548 23,000  Level Chicago Center
Tue 01:58:23 PM 43.1233 -86.1586 79° East 478 550 23,000  Level Chicago Center
Tue 01:59:27 PM 43.1489 -85.9719 79° East 482 555 23,000  Level Chicago Center
Tue 02:00:27 PM 43.1731 -85.7875 80° East 482 555 23,000  Level Chicago Center
Tue 02:01:28 PM 43.1964 -85.6092 80° East 475 547 23,000  Level Chicago Center
Tue 02:02:30 PM 43.2200 -85.4300 80° East 477 549 23,000  Level Chicago Center
Tue 02:03:32 PM 43.2417 -85.2506 81° East 477 549 23,000  Level Chicago Center
Tue 02:04:34 PM 43.2106 -85.0300 101° East 491 565 23,000  Level Chicago Center
Tue 02:05:36 PM 43.1733 -84.8511 106° East 491 565 23,000  Level Chicago Center
Tue 02:06:38 PM 43.1169 -84.6797 114° Southeast 493 567 23,000 -774 Level Chicago Center
Tue 02:07:40 PM 43.0678 -84.5111 112° Southeast 479 551 21,400 -1,935 Descending Chicago Center
Tue 02:08:42 PM 43.0217 -84.3494 111° Southeast 459 528 19,000 -2,419 Descending Chicago Center
Tue 02:09:44 PM 42.9753 -84.1892 112° Southeast 455 524 16,400 -2,612 Descending Chicago Center
Tue 02:10:07 PM 42.9483 -84.1061 114° Southeast 446 513 15,300 -2,364 Descending Cleveland Center
Tue 02:10:50 PM 42.9181 -84.0053 112° Southeast 426 490 13,800 -2,000 Descending Cleveland Center
Tue 02:11:07 PM 42.9047 -83.9564 110° East 435 501 13,300 -1,672 Descending Cleveland Center
Tue 02:11:51 PM 42.8747 -83.8469 110° East 406 467 12,100 -1,300 Descending Cleveland Center
Tue 02:12:07 PM 42.8628 -83.8181 119° Southeast 422 486 12,000 -97 Descending Cleveland Center
Tue 02:12:53 PM 42.8175 -83.7281 124° Southeast 359 413 12,000 -280 Level Cleveland Center
Tue 02:13:54 PM 42.7369 -83.7014 166° South 289 333 11,500 -940 Descending Cleveland Center
Tue 02:15:07 PM 42.6417 -83.6797 171° South 286 329 9,900 -1,313 Descending Cleveland Center
Tue 02:16:02 PM 42.5972 -83.6183 135° Southeast 262 302 8,700 -1,405 Descending Cleveland Center
Tue 02:16:58 PM 42.5556 -83.5458 128° Southeast 260 299 7,300 -1,405 Descending Cleveland Center
Tue 02:17:53 PM 42.5197 -83.4736 124° Southeast 253 291 6,100 -930 Descending Cleveland Center
Tue 02:19:07 PM 42.4658 -83.3783 127° Southeast 255 293 5,300 -738 Descending Cleveland Center
Tue 02:19:55 PM 42.4506 -83.3186 109° East 220 253 4,600 -678 Descending Cleveland Center
Tue 02:21:02 PM 42.3972 -83.2825 153° Southeast 194 223 4,000 -537 Descending Cleveland Center

Login

Don't have an account? Register now (free) for customized features, flight alerts, and more!